ADDS METAR Data INFO
IDs: Format: Raw Decoded Include TAF

Data at: 1514 UTC 22 Jun 2018

KIKG 211555Z AUTO 36004KT 10SM SCT012 BKN018 OVC060 25/25 A2987 RMK AO2 P0003 T02500250
KIKG 211535Z AUTO 03005KT 10SM SCT007 BKN012 OVC021 25/25 A2987 RMK AO2 P0001 T02500250
KIKG 211515Z AUTO 02007KT 10SM SCT003 BKN008 OVC014 25/25 A2987 RMK AO2 T02520252
KIKG 211455Z AUTO 36006KT 10SM SCT003 OVC014 25/25 A2987 RMK AO2 P0004 6//// T02510251
KIKG 211435Z AUTO 03003KT 10SM SCT003 OVC016 25/25 A2987 RMK AO2 P0001 T02510251
KIKG 211400Z AUTO 01003KT 10SM SCT003 BKN016 OVC037 25/25 A2985 RMK AO2 T02500250
KIKG 211310Z AUTO 05003KT 10SM SCT003 BKN016 OVC050 25/25 A2984 RMK AO2 T02480248
KIKG 211300Z AUTO 05003KT 10SM SCT003 BKN009 OVC050 25/25 A2983 RMK AO2 T02480248
KIKG 211240Z AUTO 07003KT 10SM BKN003 OVC013 25/25 A2982 RMK AO2 P0001 T02470247
KIKG 211215Z AUTO 09003KT 7SM BKN005 BKN031 OVC090 25/25 A2982 RMK AO2 P0001 T02460246
KIKG 211200Z AUTO 10003KT 10SM SCT003 BKN090 OVC110 25/25 A2982 RMK AO2 T02450245
KIKG 211135Z AUTO 11004KT 10SM SCT004 BKN021 OVC120 25/25 A2982 RMK AO2 P0002 T02470247
KIKG 211115Z AUTO 13004KT 7SM SCT006 BKN020 OVC090 25/25 A2981 RMK AO2 P0002 T02460246
KIKG 211055Z AUTO 12005KT 10SM SCT006 BKN019 OVC075 25/25 A2981 RMK AO2 P0013 T02460246
KIKG 211035Z AUTO 14004KT 7SM BKN004 OVC008 25/25 A2980 RMK AO2 P0011 T02500250
KIKG 211015Z AUTO 11006KT 7SM OVC005 25/25 A2980 RMK AO2 P0006 T02500250
KIKG 210955Z AUTO 11007KT 10SM OVC005 25/25 A2980 RMK AO2 P0004 T02500250
KIKG 210935Z AUTO 10005KT 10SM OVC005 25/25 A2979 RMK AO2 P0001 T02500250
KIKG 210915Z AUTO 10007KT 10SM OVC005 25/25 A2978 RMK AO2 P0001 T02500250
KIKG 210855Z AUTO 09007KT 10SM OVC005 25/25 A2979 RMK AO2 P0001 60002 T02500250
KIKG 210835Z AUTO 07003KT 7SM OVC005 25/25 A2978 RMK AO2 P0001 T02530253
KIKG 210815Z AUTO 09003KT 10SM BKN005 BKN020 OVC095 25/25 A2978 RMK AO2 T02520252
KIKG 210755Z AUTO 10005KT 10SM BKN007 BKN017 OVC036 26/26 A2978 RMK AO2 P0001 T02550255
KIKG 210735Z AUTO 10005KT 10SM SCT007 OVC017 26/26 A2978 RMK AO2 P0001 T02550255
KIKG 210715Z AUTO 10005KT 10SM BKN005 OVC015 26/26 A2979 RMK AO2 P0001 T02550255
KIKG 210655Z AUTO 10004KT 7SM SCT005 OVC013 26/26 A2980 RMK AO2 T02550255
KIKG 210635Z AUTO 09004KT 7SM SCT005 BKN013 OVC030 26/26 A2980 RMK AO2 T02550255
KIKG 210615Z AUTO 08006KT 7SM BKN011 BKN018 BKN100 26/26 A2980 RMK AO2 T02550255
KIKG 210555Z AUTO 08004KT 7SM BKN018 BKN100 25/25 A2980 RMK AO2 P0001 60185 T02540254 10280 20252
KIKG 210535Z AUTO 08003KT 10SM SCT009 BKN020 OVC046 25/25 A2980 RMK AO2 P0001 T02530253
KIKG 210515Z AUTO 09004KT 5SM SCT004 BKN011 OVC047 25/25 A2980 RMK AO2 P0001 T02540254
KIKG 210455Z AUTO 08003KT 7SM SCT006 OVC013 25/25 A2980 RMK AO2 P0001 T02540254
KIKG 210435Z AUTO 08004KT 7SM SCT006 OVC013 26/26 A2980 RMK AO2 P0001 T02550255
KIKG 210415Z AUTO 00000KT 7SM SCT006 OVC013 26/26 A2980 RMK AO2 T02550255
KIKG 210355Z AUTO 07004KT 7SM SCT007 OVC017 25/25 A2980 RMK AO2 T02540254
KIKG 210335Z AUTO 05003KT 7SM SCT007 OVC017 26/26 A2980 RMK AO2 T02550255
KIKG 210315Z AUTO 00000KT 7SM SCT008 BKN012 OVC019 26/26 A2978 RMK AO2 T02550255